DIRECCIÓN GENERAL DE AERONÁUTICA CIVIL
DIRECCIÓN METEOROLÓGICA DE CHILE
INFORMACIÓN METAR Y TAF

FIR SANTIAGO

Estación: SCSE
METAR SCSE 100200Z 29001KT 9999 FEW025 18/16 Q1014=

TAF COR SCSE 092215Z 1000/1024 29005KT 9999 SCT025 TX23/1018Z TN16/1010Z BECMG 1002/1004 VRB02KT BKN015 BECMG 1006/1008 27005KT TEMPO 1009/1013 7000 OVC015 BECMG 1018/1020 28012KT=

Estación: SCER
METAR SCER NIL=

TAF SCER NIL=

Estación: SCRD
METAR SCRD 100000Z 03002KT CAVOK 17/15 Q1015=

TAF SCRD 091620Z 0918/1006 30012KT 9999 BKN015 TX24/0918Z TN16/1006Z BECMG 0920/0922 25005KT CAVOK BECMG 0923/1001 18005KT=

Estación: SCVM
METAR SCVM 100200Z 33003KT CAVOK 17/15 Q1015=

TAF COR SCVM 092215Z 1000/1024 30005KT CAVOK TX22/1018Z TN15/1010Z BECMG 1001/1003 VRB02KT SCT020 TEMPO 1009/1015 30005KT 7000 BKN010 BECMG 1016/1018 30012KT SCT020=

Estación: SCTB
METAR SCTB 100000Z 23004KT CAVOK 25/08 Q1015=

TAF SCTB 091620Z 0918/1006 21008KT CAVOK TX32/0919Z TN18/1006Z BECMG 1001/1003 23003KT=

Estación: SCEL
METAR SCEL 100200Z 16011KT CAVOK 21/10 Q1014 NOSIG=

TAF COR SCEL 092215Z 1000/1024 19012KT CAVOK TX31/1018Z TN16/1010Z TEMPO 1008/1015 VRB02KT 5000 BR BKN010 BECMG 1015/1017 19015KT=

Estación: SCSN
SPECI SCSN 100201Z AUTO 30005KT 270V340 9999 OVC014 17/14 Q1015=

TAF SCSN 091620Z 0918/1006 30010KT CAVOK TX22/0918Z TN14/1006Z BECMG 1001/1003 08005KT=

Estación: SCRG
METAR SCRG 092000Z 19012KT CAVOK 31/15 Q1015=

TAF SCRG 091020Z 0912/0924 VRB02KT CAVOK TX30/0919Z TN16/0912Z BECMG 0915/0917 19012KT=

Estación: SCIC
METAR SCIC 100200Z AUTO VRB02KT 9999 NCD 21/11 Q1012=

TAF SCIC 091620Z 0918/1006 16012KT CAVOK TX33/0919Z TN16/1006Z BECMG 1000/1002 18005KT=

Estación: SCCH
METAR SCCH 100200Z AUTO VRB01KT CAVOK 20/13 Q1012=

TAF SCCH 091620Z 0918/1006 20010KT CAVOK TX32/0919Z TN15/1006Z BECMG 1001/1003 22004KT=

Estación: SCIE
METAR SCIE 100200Z 17003KT CAVOK 18/13 Q1013=

TAF SCIE 092215Z 1000/1024 23010KT CAVOK TX24/1019Z TN14/1010Z BECMG 1005/1007 21005KT BECMG 1017/1019 23012KT=

Estación: SCGE
METAR SCGE 092100Z 17006KT CAVOK 32/12 Q1012=

TAF SCGE 091620Z 0918/1006 18012KT CAVOK TX33/0919Z TN15/1006Z BECMG 1000/1002 19008KT=


Volver